createdAt,value
2023-10-19T00:00:35.255Z,94574.22
2023-10-19T00:01:38.922Z,94569.69
2023-10-19T00:02:40.727Z,94557.25
2023-10-19T00:03:43.002Z,94561.22
2023-10-19T00:04:44.498Z,94560.84
2023-10-19T00:05:50.171Z,94562.13
2023-10-19T00:06:54.168Z,94557.75
2023-10-19T00:07:58.354Z,94560.59
2023-10-19T00:09:00.685Z,94564.56
2023-10-19T00:10:04.887Z,94560.97
2023-10-19T00:11:09.631Z,94554.34
2023-10-19T00:12:11.620Z,94562.25
2023-10-19T00:13:13.390Z,94562.72
2023-10-19T00:14:18.214Z,94558.28
2023-10-19T00:15:24.473Z,94553.97
2023-10-19T00:16:31.906Z,94563.16
2023-10-19T00:17:34.061Z,94559.44
2023-10-19T00:18:35.939Z,94564.66
2023-10-19T00:19:41.295Z,94557.69
2023-10-19T00:20:47.080Z,94556.63
2023-10-19T00:21:51.724Z,94566.25
2023-10-19T00:22:54.544Z,94567.09
2023-10-19T00:23:58.502Z,94565.19
2023-10-19T00:25:00.329Z,94562.28
2023-10-19T00:26:11.037Z,94556.44
2023-10-19T00:27:20.308Z,94545.50
2023-10-19T00:28:23.405Z,94543.03
2023-10-19T00:29:34.519Z,94541.06
2023-10-19T00:30:39.387Z,94538.00
2023-10-19T00:31:41.550Z,94541.94
2023-10-19T00:32:43.740Z,94533.09
2023-10-19T00:33:46.506Z,94527.03
2023-10-19T00:34:53.195Z,94530.59
2023-10-19T00:36:01.260Z,94531.13
2023-10-19T00:37:08.762Z,94530.59
2023-10-19T00:38:28.853Z,94525.00
2023-10-19T00:39:41.342Z,94528.72
2023-10-19T00:40:48.260Z,94529.38
2023-10-19T00:41:51.063Z,94521.56
2023-10-19T00:42:55.671Z,94522.13
2023-10-19T00:44:13.563Z,94519.94
2023-10-19T00:45:16.813Z,94525.63
2023-10-19T00:46:21.772Z,94521.56
2023-10-19T00:47:25.959Z,94527.06
2023-10-19T00:48:28.336Z,94528.38
2023-10-19T00:49:30.200Z,94535.59
2023-10-19T00:50:32.197Z,94526.66
2023-10-19T00:51:43.891Z,94528.38
2023-10-19T00:52:50.994Z,94525.28
2023-10-19T00:53:57.081Z,94517.50
2023-10-19T00:55:00.049Z,94516.72
2023-10-19T00:56:06.173Z,94517.28
2023-10-19T00:57:11.559Z,94520.78
2023-10-19T00:58:18.850Z,94506.16
2023-10-19T00:59:31.135Z,94501.41
2023-10-19T01:00:35.343Z,94501.66
2023-10-19T01:01:44.836Z,94509.88
2023-10-19T01:02:47.367Z,94505.13
2023-10-19T01:03:57.166Z,94505.13
2023-10-19T01:05:03.611Z,94499.78
2023-10-19T01:06:11.416Z,94505.06
2023-10-19T01:07:28.606Z,94498.78
2023-10-19T01:08:35.651Z,94492.81
2023-10-19T01:09:37.796Z,94497.34
2023-10-19T01:10:40.476Z,94488.81
2023-10-19T01:11:47.154Z,94491.47
2023-10-19T01:12:48.585Z,94483.25
2023-10-19T01:13:51.733Z,94475.84
2023-10-19T01:15:18.809Z,94468.28
2023-10-19T01:16:23.381Z,94462.72
2023-10-19T01:17:27.568Z,94461.63
2023-10-19T01:18:30.678Z,94466.28
2023-10-19T01:19:32.956Z,94462.84
2023-10-19T01:20:49.092Z,94469.75
2023-10-19T01:21:59.619Z,94465.03
2023-10-19T01:23:10.182Z,94465.03
2023-10-19T01:24:17.712Z,94462.16
2023-10-19T01:25:20.212Z,94474.69
2023-10-19T01:26:27.736Z,94462.00
2023-10-19T01:27:30.054Z,94459.50
2023-10-19T01:28:43.908Z,94462.50
2023-10-19T01:29:45.908Z,94455.50
2023-10-19T01:30:52.822Z,94452.84
2023-10-19T01:32:05.954Z,94453.72
2023-10-19T01:33:13.965Z,94454.91
2023-10-19T01:34:15.876Z,94459.41
2023-10-19T01:35:17.409Z,94455.97
2023-10-19T01:36:25.075Z,94455.16
2023-10-19T01:37:26.633Z,94456.28
2023-10-19T01:38:32.206Z,94448.72
2023-10-19T01:39:36.548Z,94449.22
2023-10-19T01:40:47.075Z,94448.09
2023-10-19T01:41:51.882Z,94445.44
2023-10-19T01:42:53.736Z,94441.44
2023-10-19T01:43:55.714Z,94447.56
2023-10-19T01:44:57.367Z,94445.75
2023-10-19T01:46:05.630Z,94439.28
2023-10-19T01:47:07.496Z,94446.50
2023-10-19T01:48:09.753Z,94442.72
2023-10-19T01:49:11.800Z,94442.19
2023-10-19T01:50:20.910Z,94439.03
2023-10-19T01:51:25.040Z,94435.03
2023-10-19T01:52:26.534Z,94429.31
2023-10-19T01:53:28.122Z,94436.03
2023-10-19T01:54:30.169Z,94429.31
2023-10-19T01:55:38.963Z,94430.19
2023-10-19T01:56:43.697Z,94439.53
2023-10-19T01:57:46.077Z,94428.81
2023-10-19T01:58:48.204Z,94439.44
2023-10-19T01:59:50.373Z,94425.81
2023-10-19T02:00:56.895Z,94429.94
2023-10-19T02:01:58.828Z,94433.13
2023-10-19T02:03:01.733Z,94432.53
2023-10-19T02:04:06.629Z,94426.44
2023-10-19T02:05:14.626Z,94428.38
2023-10-19T02:06:22.371Z,94425.56
2023-10-19T02:07:25.177Z,94426.88
2023-10-19T02:08:28.210Z,94413.81
2023-10-19T02:09:33.524Z,94421.03
2023-10-19T02:10:42.065Z,94414.38
2023-10-19T02:11:47.097Z,94415.44
2023-10-19T02:12:49.045Z,94421.34
2023-10-19T02:13:53.260Z,94421.28
2023-10-19T02:14:54.742Z,94415.69
2023-10-19T02:15:57.597Z,94413.56
2023-10-19T02:17:02.479Z,94413.56
2023-10-19T02:18:04.745Z,94411.13
2023-10-19T02:19:06.403Z,94413.72
2023-10-19T02:20:15.974Z,94411.81
2023-10-19T02:21:23.461Z,94410.63
2023-10-19T02:22:25.556Z,94402.34
2023-10-19T02:23:27.106Z,94406.09
2023-10-19T02:24:28.554Z,94406.13
2023-10-19T02:25:34.968Z,94408.25
2023-10-19T02:26:38.756Z,94403.63
2023-10-19T02:27:40.249Z,94404.72
2023-10-19T02:28:44.896Z,94412.41
2023-10-19T02:29:47.715Z,94410.69
2023-10-19T02:30:49.209Z,94405.75
2023-10-19T02:31:57.880Z,94413.53
2023-10-19T02:32:59.760Z,94412.50
2023-10-19T02:34:01.379Z,94407.59
2023-10-19T02:35:03.862Z,94411.88
2023-10-19T02:36:05.498Z,94412.06
2023-10-19T02:37:08.828Z,94409.56
2023-10-19T02:38:10.430Z,94413.22
2023-10-19T02:39:15.159Z,94414.47
2023-10-19T02:40:20.821Z,94410.53
2023-10-19T02:41:22.335Z,94405.38
2023-10-19T02:42:24.839Z,94403.34
2023-10-19T02:43:26.417Z,94413.22
2023-10-19T02:44:28.572Z,94406.56
2023-10-19T02:45:32.158Z,94404.97
2023-10-19T02:46:34.219Z,94397.41
2023-10-19T02:47:36.192Z,94394.72
2023-10-19T02:48:37.714Z,94393.69
2023-10-19T02:49:44.491Z,94400.59
2023-10-19T02:50:47.021Z,94389.34
2023-10-19T02:51:50.147Z,94391.19
2023-10-19T02:52:52.091Z,94386.66
2023-10-19T02:53:54.669Z,94390.81
2023-10-19T02:54:58.177Z,94389.75
2023-10-19T02:56:02.531Z,94391.69
2023-10-19T02:57:07.985Z,94389.69
2023-10-19T02:58:09.824Z,94387.00
2023-10-19T02:59:11.816Z,94383.03
2023-10-19T03:00:20.821Z,94388.13
2023-10-19T03:01:23.116Z,94384.88
2023-10-19T03:02:27.172Z,94383.56
2023-10-19T03:03:32.102Z,94376.38
2023-10-19T03:04:36.658Z,94382.84
2023-10-19T03:05:38.239Z,94382.09
2023-10-19T03:06:42.204Z,94379.53
2023-10-19T03:07:47.416Z,94375.56
2023-10-19T03:08:53.484Z,94378.50
2023-10-19T03:09:55.314Z,94370.09
2023-10-19T03:11:05.103Z,94369.09
2023-10-19T03:12:11.348Z,94369.84
2023-10-19T03:13:16.175Z,94371.22
2023-10-19T03:14:17.778Z,94367.59
2023-10-19T03:15:22.172Z,94366.06
2023-10-19T03:16:24.952Z,94359.91
2023-10-19T03:17:28.036Z,94364.41
2023-10-19T03:18:29.708Z,94360.38
2023-10-19T03:19:31.253Z,94365.72
2023-10-19T03:20:34.382Z,94363.25
2023-10-19T03:21:50.101Z,94363.44
2023-10-19T03:22:52.066Z,94363.59
2023-10-19T03:24:02.704Z,94367.56
2023-10-19T03:25:27.508Z,94365.22
2023-10-19T03:26:32.187Z,94367.31
2023-10-19T03:27:34.361Z,94369.63
2023-10-19T03:28:36.674Z,94363.94
2023-10-19T03:29:39.896Z,94362.31
2023-10-19T03:30:41.682Z,94365.69
2023-10-19T03:31:46.589Z,94360.31
2023-10-19T03:32:48.197Z,94358.97
2023-10-19T03:33:56.504Z,94361.28
2023-10-19T03:34:58.623Z,94370.41
2023-10-19T03:36:00.678Z,94369.63
2023-10-19T03:37:06.660Z,94359.88
2023-10-19T03:38:15.862Z,94357.78
2023-10-19T03:39:18.866Z,94370.28
2023-10-19T03:40:31.568Z,94363.66
2023-10-19T03:41:36.994Z,94358.84
2023-10-19T03:42:41.792Z,94360.63
2023-10-19T03:43:43.982Z,94360.13
2023-10-19T03:44:49.429Z,94356.91
2023-10-19T03:45:54.279Z,94348.47
2023-10-19T03:46:59.432Z,94359.41
2023-10-19T03:48:08.008Z,94353.91
2023-10-19T03:49:13.605Z,94358.28
2023-10-19T03:50:16.261Z,94349.94
2023-10-19T03:51:18.730Z,94356.91
2023-10-19T03:52:20.307Z,94350.81
2023-10-19T03:53:22.638Z,94349.59
2023-10-19T03:54:25.853Z,94348.28
2023-10-19T03:55:30.062Z,94343.25
2023-10-19T03:56:34.209Z,94344.56
2023-10-19T03:57:36.300Z,94338.66
2023-10-19T03:58:40.152Z,94335.97
2023-10-19T03:59:42.786Z,94337.56
2023-10-19T04:00:45.727Z,94329.94
2023-10-19T04:01:48.269Z,94336.44
2023-10-19T04:02:51.699Z,94335.66
2023-10-19T04:03:56.183Z,94338.59
2023-10-19T04:05:02.473Z,94333.44
2023-10-19T04:06:06.276Z,94332.06
2023-10-19T04:07:23.121Z,94331.00
2023-10-19T04:08:27.576Z,94324.59
2023-10-19T04:09:31.654Z,94320.47
2023-10-19T04:10:36.274Z,94331.19
2023-10-19T04:11:49.687Z,94320.09
2023-10-19T04:12:51.162Z,94320.88
2023-10-19T04:13:54.370Z,94321.84
2023-10-19T04:14:57.359Z,94321.53
2023-10-19T04:15:58.820Z,94323.31
2023-10-19T04:17:00.450Z,94317.00
2023-10-19T04:18:09.872Z,94317.97
2023-10-19T04:19:12.164Z,94319.53
2023-10-19T04:20:18.167Z,94318.22
2023-10-19T04:21:19.658Z,94319.06
2023-10-19T04:22:24.231Z,94318.31
2023-10-19T04:23:29.306Z,94312.88
2023-10-19T04:24:34.105Z,94320.59
2023-10-19T04:25:35.579Z,94318.19
2023-10-19T04:26:38.345Z,94314.59
2023-10-19T04:27:43.068Z,94317.00
2023-10-19T04:28:50.801Z,94316.84
2023-10-19T04:29:52.911Z,94314.41
2023-10-19T04:30:55.090Z,94313.81
2023-10-19T04:31:56.920Z,94308.56
2023-10-19T04:32:58.996Z,94313.91
2023-10-19T04:34:10.623Z,94302.94
2023-10-19T04:35:22.239Z,94308.66
2023-10-19T04:36:23.680Z,94309.44
2023-10-19T04:37:25.761Z,94298.72
2023-10-19T04:38:32.444Z,94308.38
2023-10-19T04:39:35.427Z,94298.97
2023-10-19T04:40:37.193Z,94298.91
2023-10-19T04:41:39.052Z,94301.72
2023-10-19T04:42:40.927Z,94298.66
2023-10-19T04:43:44.387Z,94291.13
2023-10-19T04:44:45.953Z,94300.72
2023-10-19T04:45:47.427Z,94302.63
2023-10-19T04:46:49.110Z,94303.88
2023-10-19T04:47:53.565Z,94301.50
2023-10-19T04:48:55.258Z,94294.22
2023-10-19T04:49:56.757Z,94304.38
2023-10-19T04:50:58.189Z,94300.63
2023-10-19T04:51:59.660Z,94303.88
2023-10-19T04:53:01.139Z,94295.88
2023-10-19T04:54:03.458Z,94298.53
2023-10-19T04:55:05.238Z,94295.28
2023-10-19T04:56:10.076Z,94293.31
2023-10-19T04:57:12.085Z,94302.38
2023-10-19T04:58:13.498Z,94294.44
2023-10-19T04:59:15.039Z,94297.78
2023-10-19T05:00:16.822Z,94291.47
2023-10-19T05:01:18.391Z,94293.63
2023-10-19T05:02:20.121Z,94292.00
2023-10-19T05:03:22.105Z,94291.47
2023-10-19T05:04:23.732Z,94292.25
2023-10-19T05:05:25.364Z,94291.19
2023-10-19T05:06:26.814Z,94286.91
2023-10-19T05:07:28.276Z,94283.66
2023-10-19T05:08:31.089Z,94290.44
2023-10-19T05:09:33.449Z,94289.66
2023-10-19T05:10:34.933Z,94284.66
2023-10-19T05:11:36.765Z,94287.59
2023-10-19T05:12:38.209Z,94282.75
2023-10-19T05:13:40.217Z,94286.09
2023-10-19T05:14:43.451Z,94288.19
2023-10-19T05:15:45.063Z,94284.53
2023-10-19T05:16:46.655Z,94282.59
2023-10-19T05:17:48.715Z,94285.59
2023-10-19T05:18:50.474Z,94292.50
2023-10-19T05:19:52.206Z,94278.00
2023-10-19T05:20:57.181Z,94287.44
2023-10-19T05:22:00.541Z,94282.56
2023-10-19T05:23:02.019Z,94282.59
2023-10-19T05:24:03.705Z,94288.81
2023-10-19T05:25:05.646Z,94287.25
2023-10-19T05:26:07.894Z,94289.22
2023-10-19T05:27:11.774Z,94280.59
2023-10-19T05:28:15.537Z,94273.38
2023-10-19T05:29:17.039Z,94282.47
2023-10-19T05:30:18.918Z,94283.25
2023-10-19T05:31:20.525Z,94286.25
2023-10-19T05:32:22.279Z,94278.50
2023-10-19T05:33:24.762Z,94278.94
2023-10-19T05:34:30.461Z,94276.25
2023-10-19T05:35:36.111Z,94280.16
2023-10-19T05:36:37.620Z,94288.34
2023-10-19T05:37:39.146Z,94282.97
2023-10-19T05:38:40.779Z,94279.72
2023-10-19T05:39:43.521Z,94282.41
2023-10-19T05:40:45.211Z,94290.75
2023-10-19T05:41:46.758Z,94288.81
2023-10-19T05:42:48.299Z,94276.06
2023-10-19T05:43:50.623Z,94279.28
2023-10-19T05:44:52.864Z,94288.16
2023-10-19T05:45:54.271Z,94278.91
2023-10-19T05:46:56.117Z,94275.38
2023-10-19T05:48:01.330Z,94276.97
2023-10-19T05:49:04.959Z,94281.81
2023-10-19T05:50:06.726Z,94279.94
2023-10-19T05:51:08.228Z,94273.22
2023-10-19T05:52:09.823Z,94280.66
2023-10-19T05:53:11.299Z,94270.03
2023-10-19T05:54:13.654Z,94272.84
2023-10-19T05:55:15.559Z,94271.41
2023-10-19T05:56:18.102Z,94276.81
2023-10-19T05:57:19.747Z,94270.69
2023-10-19T05:58:21.658Z,94281.38
2023-10-19T05:59:27.520Z,94280.00
2023-10-19T06:00:29.442Z,94277.34
2023-10-19T06:01:30.912Z,94272.06
2023-10-19T06:02:33.645Z,94276.63
2023-10-19T06:03:35.683Z,94267.88
2023-10-19T06:04:39.283Z,94272.44
2023-10-19T06:05:41.314Z,94271.34
2023-10-19T06:06:42.767Z,94266.00
2023-10-19T06:07:48.627Z,94266.81
2023-10-19T06:08:55.064Z,94267.34
2023-10-19T06:09:56.661Z,94275.97
2023-10-19T06:10:58.128Z,94271.41
2023-10-19T06:11:59.616Z,94278.13
2023-10-19T06:13:01.124Z,94277.28
2023-10-19T06:14:02.606Z,94274.88
2023-10-19T06:15:04.672Z,94273.28
2023-10-19T06:16:06.462Z,94282.69
2023-10-19T06:17:07.997Z,94286.69
2023-10-19T06:18:11.501Z,94275.97
2023-10-19T06:19:13.302Z,94280.22
2023-10-19T06:20:24.590Z,94273.88
2023-10-19T06:21:26.174Z,94277.81
2023-10-19T06:22:29.682Z,94283.75
2023-10-19T06:23:32.639Z,94275.19
2023-10-19T06:24:34.067Z,94284.84
2023-10-19T06:25:38.466Z,94276.56
2023-10-19T06:26:39.993Z,94281.97
2023-10-19T06:27:41.484Z,94275.97
2023-10-19T06:28:43.060Z,94282.69
2023-10-19T06:29:45.372Z,94278.31
2023-10-19T06:30:49.305Z,94285.81
2023-10-19T06:31:51.174Z,94279.69
2023-10-19T06:32:58.400Z,94279.69
2023-10-19T06:34:01.223Z,94282.91
2023-10-19T06:35:03.024Z,94280.81
2023-10-19T06:36:04.989Z,94279.50
2023-10-19T06:37:09.752Z,94287.59
2023-10-19T06:38:11.211Z,94277.41
2023-10-19T06:39:14.573Z,94275.50
2023-10-19T06:40:17.949Z,94278.19
2023-10-19T06:41:19.670Z,94276.84
2023-10-19T06:42:22.073Z,94276.34
2023-10-19T06:43:29.642Z,94277.47
2023-10-19T06:44:32.759Z,94272.38
2023-10-19T06:45:34.704Z,94273.69
2023-10-19T06:46:37.142Z,94277.00
2023-10-19T06:47:38.975Z,94273.22
2023-10-19T06:48:40.747Z,94272.91
2023-10-19T06:49:42.407Z,94282.88
2023-10-19T06:50:46.615Z,94273.75
2023-10-19T06:51:49.909Z,94277.31
2023-10-19T06:52:51.957Z,94269.78
2023-10-19T06:53:54.252Z,94279.94
2023-10-19T06:54:55.708Z,94277.84
2023-10-19T06:55:57.342Z,94276.78
2023-10-19T06:56:59.394Z,94263.13
2023-10-19T06:58:02.279Z,94273.00
2023-10-19T06:59:06.425Z,94272.16
2023-10-19T07:00:15.298Z,94270.31
2023-10-19T07:01:17.742Z,94282.88
2023-10-19T07:02:21.696Z,94281.53
2023-10-19T07:03:24.069Z,94266.75
2023-10-19T07:04:26.101Z,94280.22
2023-10-19T07:05:33.569Z,94287.50
2023-10-19T07:06:35.037Z,94275.22
2023-10-19T07:07:36.524Z,94280.50
2023-10-19T07:08:38.013Z,94279.94
2023-10-19T07:09:40.301Z,94277.53
2023-10-19T07:10:42.051Z,94275.69
2023-10-19T07:11:45.801Z,94287.97
2023-10-19T07:12:49.915Z,94278.94
2023-10-19T07:13:51.396Z,94280.03
2023-10-19T07:14:52.885Z,94276.78
2023-10-19T07:15:54.315Z,94273.59
2023-10-19T07:16:56.031Z,94280.56
2023-10-19T07:17:57.716Z,94277.09
2023-10-19T07:19:00.347Z,94271.69
2023-10-19T07:20:07.013Z,94275.44
2023-10-19T07:21:10.572Z,94273.38
2023-10-19T07:22:12.118Z,94275.28
2023-10-19T07:23:19.665Z,94277.47
2023-10-19T07:24:24.775Z,94270.56
2023-10-19T07:25:27.174Z,94265.25
2023-10-19T07:26:34.574Z,94276.28
2023-10-19T07:27:38.583Z,94271.72
2023-10-19T07:28:41.078Z,94270.44
2023-10-19T07:29:44.304Z,94268.03
2023-10-19T07:30:47.291Z,94272.34
2023-10-19T07:31:49.203Z,94269.16
2023-10-19T07:32:54.731Z,94271.34
2023-10-19T07:33:58.554Z,94267.06
2023-10-19T07:35:00.253Z,94264.94
2023-10-19T07:36:07.990Z,94263.84
2023-10-19T07:37:13.376Z,94271.13
2023-10-19T07:38:16.137Z,94270.06
2023-10-19T07:39:20.284Z,94271.72
2023-10-19T07:40:21.907Z,94271.44
2023-10-19T07:41:23.354Z,94266.59
2023-10-19T07:42:25.551Z,94275.44
2023-10-19T07:43:27.553Z,94272.75
2023-10-19T07:44:31.489Z,94264.72
2023-10-19T07:45:33.419Z,94269.22
2023-10-19T07:46:34.961Z,94270.03
2023-10-19T07:47:36.473Z,94260.41
2023-10-19T07:48:37.917Z,94266.56
2023-10-19T07:49:39.901Z,94259.09
2023-10-19T07:50:42.206Z,94260.94
2023-10-19T07:51:48.336Z,94262.25
2023-10-19T07:52:55.066Z,94264.16
2023-10-19T07:53:57.884Z,94260.94
2023-10-19T07:54:59.325Z,94257.19
2023-10-19T07:56:01.281Z,94258.28
2023-10-19T07:57:13.835Z,94261.25
2023-10-19T07:58:15.335Z,94263.69
2023-10-19T07:59:17.306Z,94256.44
2023-10-19T08:00:20.659Z,94259.09
2023-10-19T08:01:22.198Z,94254.81
2023-10-19T08:02:25.786Z,94247.84
2023-10-19T08:03:27.263Z,94254.56
2023-10-19T08:04:30.428Z,94251.13
2023-10-19T08:05:32.336Z,94251.38
2023-10-19T08:06:33.883Z,94254.34
2023-10-19T08:07:35.682Z,94255.16
2023-10-19T08:08:37.765Z,94252.75
2023-10-19T08:09:39.455Z,94252.47
2023-10-19T08:10:40.915Z,94259.22
2023-10-19T08:11:43.383Z,94252.25
2023-10-19T08:12:48.448Z,94265.97
2023-10-19T08:13:50.496Z,94263.03
2023-10-19T08:14:52.067Z,94262.50
2023-10-19T08:15:53.805Z,94267.31
2023-10-19T08:16:55.551Z,94258.78
2023-10-19T08:17:57.477Z,94254.47
2023-10-19T08:18:59.058Z,94253.44
2023-10-19T08:20:04.334Z,94252.63
2023-10-19T08:21:06.008Z,94260.94
2023-10-19T08:22:07.531Z,94261.75
2023-10-19T08:23:08.998Z,94265.28
2023-10-19T08:24:14.767Z,94259.34
2023-10-19T08:25:16.559Z,94255.03
2023-10-19T08:26:18.147Z,94258.00
2023-10-19T08:27:19.678Z,94259.63
2023-10-19T08:28:22.129Z,94253.97
2023-10-19T08:29:25.009Z,94248.31
2023-10-19T08:30:28.592Z,94252.06
2023-10-19T08:31:30.798Z,94251.81
2023-10-19T08:32:33.777Z,94247.78
2023-10-19T08:33:39.852Z,94249.09
2023-10-19T08:34:42.808Z,94253.41
2023-10-19T08:35:44.416Z,94251.22
2023-10-19T08:36:46.051Z,94249.31
2023-10-19T08:37:48.082Z,94247.44
2023-10-19T08:38:49.590Z,94248.81
2023-10-19T08:39:51.584Z,94247.69
2023-10-19T08:40:54.095Z,94247.19
2023-10-19T08:41:56.600Z,94240.69
2023-10-19T08:42:58.165Z,94242.31
2023-10-19T08:44:01.052Z,94238.00
2023-10-19T08:45:04.083Z,94234.75
2023-10-19T08:46:06.713Z,94239.84
2023-10-19T08:47:09.510Z,94235.25
2023-10-19T08:48:12.351Z,94239.28
2023-10-19T08:49:17.397Z,94238.75
2023-10-19T08:50:24.470Z,94234.72
2023-10-19T08:51:26.497Z,94238.75
2023-10-19T08:52:29.003Z,94239.28
2023-10-19T08:53:30.757Z,94242.22
2023-10-19T08:54:34.863Z,94239.28
2023-10-19T08:55:49.508Z,94238.47
2023-10-19T08:56:52.914Z,94240.63
2023-10-19T08:57:54.413Z,94240.06
2023-10-19T08:58:55.996Z,94240.00
2023-10-19T08:59:59.943Z,94242.41
2023-10-19T09:01:07.833Z,94239.72
2023-10-19T09:02:09.559Z,94240.78
2023-10-19T09:03:14.879Z,94237.81
2023-10-19T09:04:17.483Z,94227.38
2023-10-19T09:05:27.110Z,94237.53
2023-10-19T09:06:30.102Z,94234.03
2023-10-19T09:07:31.902Z,94238.06
2023-10-19T09:08:40.295Z,94236.16
2023-10-19T09:09:41.938Z,94235.00
2023-10-19T09:10:46.384Z,94228.38
2023-10-19T09:11:49.153Z,94229.44
2023-10-19T09:13:13.329Z,94219.41
2023-10-19T09:14:31.578Z,94220.75
2023-10-19T09:15:36.850Z,94224.22
2023-10-19T09:16:38.412Z,94216.72
2023-10-19T09:17:41.117Z,94225.63
2023-10-19T09:18:42.781Z,94221.38
2023-10-19T09:19:49.200Z,94223.16
2023-10-19T09:20:57.373Z,94219.44
2023-10-19T09:21:59.852Z,94212.50
2023-10-19T09:23:03.177Z,94211.69
2023-10-19T09:24:05.006Z,94216.03
2023-10-19T09:25:07.983Z,94214.06
2023-10-19T09:26:09.598Z,94210.00
2023-10-19T09:27:11.550Z,94213.00
2023-10-19T09:28:14.895Z,94217.00
2023-10-19T09:29:20.033Z,94214.25
2023-10-19T09:30:23.964Z,94201.81
2023-10-19T09:31:27.110Z,94206.97
2023-10-19T09:32:30.256Z,94204.81
2023-10-19T09:33:34.786Z,94206.03
2023-10-19T09:34:37.399Z,94189.63
2023-10-19T09:35:44.221Z,94197.75
2023-10-19T09:36:45.886Z,94200.63
2023-10-19T09:37:48.767Z,94201.69
2023-10-19T09:38:54.502Z,94189.59
2023-10-19T09:39:56.158Z,94195.78
2023-10-19T09:41:00.913Z,94193.38
2023-10-19T09:42:11.925Z,94195.63
2023-10-19T09:43:22.224Z,94202.09
2023-10-19T09:44:27.539Z,94203.53
2023-10-19T09:45:32.909Z,94195.66
2023-10-19T09:46:39.985Z,94195.13
2023-10-19T09:47:47.040Z,94196.41
2023-10-19T09:48:49.686Z,94198.06
2023-10-19T09:49:51.356Z,94202.38
2023-10-19T09:50:56.346Z,94201.34
2023-10-19T09:52:08.989Z,94196.94
2023-10-19T09:53:12.559Z,94207.56
2023-10-19T09:54:19.010Z,94207.00
2023-10-19T09:55:30.806Z,94202.47
2023-10-19T09:56:40.073Z,94208.75
2023-10-19T09:58:01.240Z,94201.16
2023-10-19T09:59:27.674Z,94199.88
2023-10-19T10:00:32.909Z,94199.22
2023-10-19T10:02:09.457Z,94205.66
2023-10-19T10:03:50.368Z,94202.22
2023-10-19T10:04:51.944Z,94204.09
2023-10-19T10:05:53.993Z,94208.16
2023-10-19T10:06:55.401Z,94209.03
2023-10-19T10:08:18.974Z,94206.03
2023-10-19T10:09:24.755Z,94208.84
2023-10-19T10:10:26.747Z,94198.34
2023-10-19T10:11:29.127Z,94206.63
2023-10-19T10:12:30.966Z,94199.66
2023-10-19T10:13:35.785Z,94196.38
2023-10-19T10:14:37.641Z,94196.38
2023-10-19T10:15:41.782Z,94192.78
2023-10-19T10:16:44.680Z,94188.47
2023-10-19T10:17:53.509Z,94199.00
2023-10-19T10:18:56.846Z,94190.19
2023-10-19T10:20:14.423Z,94196.25
2023-10-19T10:21:18.573Z,94201.13
2023-10-19T10:22:22.468Z,94200.03
2023-10-19T10:23:33.426Z,94196.50
2023-10-19T10:24:35.027Z,94192.19
2023-10-19T10:25:36.561Z,94199.22
2023-10-19T10:27:01.506Z,94191.66
2023-10-19T10:28:04.464Z,94197.13
2023-10-19T10:29:14.189Z,94197.81
2023-10-19T10:30:17.043Z,94198.63
2023-10-19T10:31:22.801Z,94195.91
2023-10-19T10:32:46.334Z,94197.78
2023-10-19T10:33:52.784Z,94200.75
2023-10-19T10:34:54.386Z,94196.22
2023-10-19T10:35:56.292Z,94198.91
2023-10-19T10:37:00.471Z,94193.78
2023-10-19T10:38:02.395Z,94197.25
2023-10-19T10:39:07.161Z,94199.69
2023-10-19T10:40:09.199Z,94207.56
2023-10-19T10:41:13.976Z,94199.13
2023-10-19T10:42:17.829Z,94202.63
2023-10-19T10:43:20.197Z,94199.94
2023-10-19T10:44:21.680Z,94196.50
2023-10-19T10:45:23.213Z,94202.78
2023-10-19T10:46:26.780Z,94200.56
2023-10-19T10:47:31.482Z,94202.22
2023-10-19T10:48:33.146Z,94210.09
2023-10-19T10:49:34.807Z,94210.09
2023-10-19T10:50:38.768Z,94209.88
2023-10-19T10:51:42.758Z,94205.84
2023-10-19T10:52:44.543Z,94212.28
2023-10-19T10:53:54.000Z,94211.22
2023-10-19T10:54:56.531Z,94211.47
2023-10-19T10:56:01.555Z,94208.53
2023-10-19T10:57:03.627Z,94216.13
2023-10-19T10:58:05.987Z,94208.34
2023-10-19T10:59:14.805Z,94210.53
2023-10-19T11:00:17.187Z,94212.16
2023-10-19T11:01:34.162Z,94213.50
2023-10-19T11:02:37.344Z,94199.81
2023-10-19T11:03:38.963Z,94207.09
2023-10-19T11:04:47.348Z,94206.03
2023-10-19T11:05:49.129Z,94203.66
2023-10-19T11:06:52.629Z,94205.81
2023-10-19T11:08:14.203Z,94211.47
2023-10-19T11:09:19.571Z,94207.97
2023-10-19T11:10:30.475Z,94207.19
2023-10-19T11:11:38.952Z,94211.75
2023-10-19T11:12:40.509Z,94210.69
2023-10-19T11:13:42.166Z,94215.53
2023-10-19T11:15:22.680Z,94219.56
2023-10-19T11:16:24.658Z,94212.84
2023-10-19T11:17:31.690Z,94213.66
2023-10-19T11:18:37.057Z,94218.47
2023-10-19T11:19:40.701Z,94210.44
2023-10-19T11:20:42.479Z,94209.34
2023-10-19T11:21:58.360Z,94214.72
2023-10-19T11:23:04.074Z,94217.13
2023-10-19T11:24:06.532Z,94217.41
2023-10-19T11:25:24.604Z,94205.06
2023-10-19T11:26:26.226Z,94214.72
2023-10-19T11:27:29.004Z,94217.16
2023-10-19T11:28:31.179Z,94212.03
2023-10-19T11:29:32.786Z,94214.72
2023-10-19T11:30:34.491Z,94209.38
2023-10-19T11:31:39.020Z,94212.56
2023-10-19T11:32:41.185Z,94203.69
2023-10-19T11:33:44.428Z,94204.25
2023-10-19T11:34:45.990Z,94202.91
2023-10-19T11:35:48.389Z,94208.00
2023-10-19T11:36:57.344Z,94199.94
2023-10-19T11:38:00.458Z,94200.22
2023-10-19T11:39:02.313Z,94197.53
2023-10-19T11:40:05.516Z,94190.53
2023-10-19T11:41:07.113Z,94188.13
2023-10-19T11:42:08.679Z,94174.66
2023-10-19T11:43:10.155Z,94177.34
2023-10-19T11:44:11.716Z,94184.06
2023-10-19T11:45:13.512Z,94181.66
2023-10-19T11:46:16.006Z,94177.63
2023-10-19T11:47:17.776Z,94175.50
2023-10-19T11:48:19.690Z,94177.09
2023-10-19T11:49:22.621Z,94167.44
2023-10-19T11:50:25.963Z,94164.72
2023-10-19T11:51:27.724Z,94167.41
2023-10-19T11:52:30.729Z,94161.47
2023-10-19T11:53:37.680Z,94160.97
2023-10-19T11:54:40.311Z,94154.78
2023-10-19T11:55:43.109Z,94151.31
2023-10-19T11:56:45.186Z,94149.69
2023-10-19T11:57:46.651Z,94150.78
2023-10-19T11:58:48.850Z,94152.38
2023-10-19T11:59:55.298Z,94138.69
2023-10-19T12:00:58.683Z,94144.31
2023-10-19T12:02:01.984Z,94137.34
2023-10-19T12:03:04.205Z,94134.94
2023-10-19T12:04:06.797Z,94136.53
2023-10-19T12:05:11.916Z,94142.72
2023-10-19T12:06:14.728Z,94126.88
2023-10-19T12:07:16.203Z,94118.28
2023-10-19T12:08:18.437Z,94114.53
2023-10-19T12:09:25.291Z,94100.03
2023-10-19T12:10:39.218Z,94105.13
2023-10-19T12:11:41.356Z,94103.50
2023-10-19T12:12:58.510Z,94115.31
2023-10-19T12:14:05.166Z,94108.59
2023-10-19T12:15:07.768Z,94101.06
2023-10-19T12:16:09.775Z,94094.88
2023-10-19T12:17:12.003Z,94097.31
2023-10-19T12:18:15.130Z,94102.97
2023-10-19T12:19:18.415Z,94112.09
2023-10-19T12:20:23.137Z,94118.00
2023-10-19T12:21:28.842Z,94120.69
2023-10-19T12:22:33.572Z,94115.84
2023-10-19T12:23:35.026Z,94120.94
2023-10-19T12:24:37.022Z,94126.84
2023-10-19T12:25:54.235Z,94122.28
2023-10-19T12:26:58.973Z,94123.09
2023-10-19T12:28:00.863Z,94125.50
2023-10-19T12:29:02.691Z,94120.41
2023-10-19T12:30:14.580Z,94125.50
2023-10-19T12:31:19.489Z,94129.03
2023-10-19T12:32:23.046Z,94121.78
2023-10-19T12:33:24.944Z,94126.03
2023-10-19T12:34:28.585Z,94121.19
2023-10-19T12:35:50.328Z,94115.03